Flight Track Log - Related Links

Times and Time Zones

All times are in EDT time to prevent confusion due to time zone crossing. See the SWA1521 flight status page for this flight to view local times or setup timezone preferences in your user account.

Time Position Orientation Groundspeed Altitude Reporting Facility
EDT Latitude Longitude Course Direction KTS MPH feet Rate Location/Type
Mon 11:37:22 PM 38.7333 -121.6000 108° East 156 180 1,900  Level Northern Cal TRACON
Mon 11:38:22 PM 38.7167 -121.5333 108° East 232 267 4,500 2,850 Climbing Northern Cal TRACON
Mon 11:39:22 PM 38.6667 -121.4667 134° Southeast 273 314 7,600 3,021 Climbing Northern Cal TRACON
Mon 11:40:45 PM 38.6042 -121.3544 125° Southeast 324 373 11,700 3,333 Climbing Oakland Center
Mon 11:41:46 PM 38.5444 -121.2461 125° Southeast 364 419 15,600 3,639 Climbing Oakland Center
Mon 11:42:47 PM 38.4853 -121.1389 125° Southeast 382 440 19,100 3,295 Climbing Oakland Center
Mon 11:43:48 PM 38.4194 -121.0189 125° Southeast 406 467 22,300 2,803 Climbing Oakland Center
Mon 11:44:49 PM 38.3506 -120.8944 125° Southeast 425 489 24,800 2,754 Climbing Oakland Center
Mon 11:45:50 PM 38.2639 -120.7372 125° Southeast 448 516 27,900 2,678 Climbing Oakland Center
Mon 11:46:50 PM 38.1728 -120.6211 135° Southeast 456 525 30,200 2,132 Climbing Oakland Center
Mon 11:47:51 PM 38.0667 -120.5194 143° Southeast 472 543 32,200 2,262 Climbing Oakland Center
Mon 11:48:52 PM 37.9617 -120.4158 142° Southeast 476 548 34,800 2,361 Climbing Oakland Center
Mon 11:49:53 PM 37.8600 -120.3172 143° Southeast 462 532 37,000 2,016 Climbing Oakland Center
Mon 11:50:54 PM 37.7597 -120.2194 142° Southeast 457 526 38,900 984 Climbing Oakland Center
Mon 11:51:55 PM 37.6583 -120.1233 143° Southeast 455 524 39,000 49 Climbing Oakland Center
Mon 11:52:56 PM 37.5558 -120.0328 145° Southeast 453 521 39,000  Level Oakland Center
Mon 11:53:57 PM 37.4475 -119.9600 152° Southeast 450 518 39,000  Level Oakland Center
Mon 11:54:58 PM 37.3233 -119.9419 173° South 447 514 39,000  Level Oakland Center
Mon 11:56:00 PM 37.1981 -119.9225 173° South 452 520 39,000  Level Oakland Center
Mon 11:57:01 PM 37.0547 -119.8997 173° South 446 513 39,000  Level Oakland Center
Mon 11:58:02 PM 36.9275 -119.8817 174° South 458 527 39,000  Level Oakland Center
Mon 11:59:03 PM 36.8019 -119.8581 171° South 461 531 39,000  Level Oakland Center
Tue 12:00:04 AM 36.6725 -119.8406 174° South 464 534 39,000  Level Oakland Center
Tue 12:01:05 AM 36.5458 -119.8222 173° South 459 528 39,000  Level Oakland Center
Tue 12:02:06 AM 36.4172 -119.8033 173° South 463 533 39,000  Level Oakland Center
Tue 12:03:07 AM 36.2894 -119.7847 173° South 462 532 39,000  Level Oakland Center
Tue 12:04:08 AM 36.1603 -119.7653 173° South 466 536 39,000  Level Oakland Center
Tue 12:05:09 AM 36.0317 -119.7469 173° South 465 535 39,000  Level Oakland Center
Tue 12:06:10 AM 35.9044 -119.7331 175° South 457 526 39,000  Level Oakland Center
Tue 12:07:11 AM 35.7747 -119.7122 173° South 464 534 39,000  Level Oakland Center
Tue 12:08:12 AM 35.6433 -119.6942 174° South 470 541 39,000 -393 Level Oakland Center
Tue 12:09:13 AM 35.5150 -119.6767 174° South 462 532 38,200 -836 Descending Oakland Center
Tue 12:10:14 AM 35.3853 -119.6583 173° South 465 535 37,300 -934 Descending Oakland Center
Tue 12:11:15 AM 35.2581 -119.6333 171° South 462 532 36,300 -1,077 Descending Oakland Center
Tue 12:11:32 AM 35.2139 -119.6056 153° Southeast 456 525 35,900 -1,026 Descending Los Angeles Center
Tue 12:12:31 AM 35.1125 -119.5189 145° Southeast 445 512 35,000 -1,736 Descending Los Angeles Center
Tue 12:13:33 AM 35.0103 -119.4314 145° Southeast 448 516 32,400 -2,439 Descending Los Angeles Center
Tue 12:14:34 AM 34.9086 -119.3456 145° Southeast 444 511 30,000 -2,293 Descending Los Angeles Center
Tue 12:15:36 AM 34.8111 -119.2636 145° Southeast 432 497 27,700 -2,293 Descending Los Angeles Center
Tue 12:16:37 AM 34.7131 -119.1822 146° Southeast 428 493 25,300 -2,341 Descending Los Angeles Center
Tue 12:17:39 AM 34.6133 -119.0972 145° Southeast 426 490 22,900 -2,293 Descending Los Angeles Center
Tue 12:18:40 AM 34.5219 -119.0211 146° Southeast 394 453 20,600 -2,213 Descending Los Angeles Center
Tue 12:19:41 AM 34.4325 -118.9464 145° Southeast 390 449 18,400 -2,293 Descending Los Angeles Center
Tue 12:20:43 AM 34.3272 -118.8692 149° Southeast 369 425 15,900 -1,707 Descending Los Angeles Center
Tue 12:21:44 AM 34.2381 -118.8383 164° South 335 386 14,900 -1,279 Descending Los Angeles Center
Tue 12:22:45 AM 34.1531 -118.8436 183° South 317 365 13,300 -1,610 Descending Los Angeles Center
Tue 12:23:47 AM 34.0706 -118.8514 184° South 311 358 11,600 -1,610 Descending Los Angeles Center
Tue 12:24:48 AM 34.0347 -118.7556 114° Southeast 307 353 10,000 -787 Descending Los Angeles Center
Tue 12:25:49 AM 34.0264 -118.6561 96° East 299 344 10,000 -98 Level Los Angeles Center
Tue 12:26:51 AM 34.0189 -118.5650 96° East 247 284 9,800 -634 Descending Los Angeles Center
Tue 12:27:52 AM 34.0128 -118.4931 96° East 218 251 8,700 -934 Descending Los Angeles Center
Tue 12:28:53 AM 34.0131 -118.4322 90° East 212 244 7,900 -885 Descending Los Angeles Center
Tue 12:29:54 AM 34.0200 -118.3506 84° East 204 235 6,900 -976 Descending Los Angeles Center
Tue 12:30:56 AM 34.0236 -118.2825 86° East 203 234 5,900 -976 Descending Los Angeles Center
Tue 12:31:57 AM 34.0294 -118.2175 84° East 198 228 4,900 -885 Descending Los Angeles Center
Tue 12:32:58 AM 34.0339 -118.1661 84° East 194 223 4,100 -843 Descending Los Angeles Center
Tue 12:33:58 AM 34.0333 -118.0833 90° East 195 224 3,200 -750 Descending Southern California TRACON
Tue 12:34:58 AM 34.0000 -118.1000 203° Southwest 190 219 2,600 -283 Descending Southern California TRACON
Tue 12:36:05 AM 33.9833 -118.1500 248° West 177 204 2,600  Level Southern California TRACON
Tue 12:37:05 AM 33.9667 -118.2167 253° West 180 207 2,600 -200 Level Southern California TRACON
Tue 12:38:05 AM 33.9667 -118.2667 270° West 184 212 2,200 -650 Descending Southern California TRACON
Tue 12:39:05 AM 33.9667 -118.3333 270° West 152 175 1,300 -750 Descending Southern California TRACON
Tue 12:40:05 AM 33.9500 -118.3667 239° Southwest 129 148 700 -640 Descending Southern California TRACON
Tue 12:40:20 AM 33.9556 -118.3806 296° West 142 163 500 -474 Descending Los Angeles Center
Tue 12:41:21 AM 33.9511 -118.4172 262° West 135 155 100 -393 Descending Los Angeles Center
Tue 12:43:00 AM 33.9425 -118.4081 239° Southwest  Level Estimated

Login

Don't have an account? Register now (free) for customized features, flight alerts, and more!